createdAt,value
2019-06-07T00:00:54.220Z,18.85
2019-06-07T00:03:30.177Z,14.93
2019-06-07T00:06:01.106Z,15.45
2019-06-07T00:08:33.378Z,15.15
2019-06-07T00:11:07.763Z,13.58
2019-06-07T00:13:39.863Z,19.65
2019-06-07T00:16:14.944Z,11.68
2019-06-07T00:18:46.559Z,16.87
2019-06-07T00:21:20.388Z,18.80
2019-06-07T00:23:52.827Z,15.25
2019-06-07T00:26:26.845Z,18.82
2019-06-07T00:28:59.214Z,24.85
2019-06-07T00:31:31.485Z,17.60
2019-06-07T00:34:03.858Z,14.35
2019-06-07T00:36:36.428Z,12.95
2019-06-07T00:39:10.601Z,15.53
2019-06-07T00:41:43.531Z,14.40
2019-06-07T00:44:19.727Z,13.32
2019-06-07T00:46:49.912Z,16.30
2019-06-07T00:49:39.899Z,11.38
2019-06-07T00:51:56.295Z,14.85
2019-06-07T00:54:29.187Z,21.10
2019-06-07T00:57:01.753Z,17.57
2019-06-07T00:59:33.925Z,16.00
2019-06-07T01:02:07.437Z,16.65
2019-06-07T01:04:39.690Z,21.05
2019-06-07T01:07:13.230Z,12.35
2019-06-07T01:09:45.499Z,13.75
2019-06-07T01:12:21.264Z,12.70
2019-06-07T01:14:52.453Z,21.77
2019-06-07T01:17:41.314Z,22.25
2019-06-07T01:20:03.747Z,18.10
2019-06-07T01:22:36.021Z,10.53
2019-06-07T01:25:09.405Z,14.20
2019-06-07T01:27:41.682Z,12.60
2019-06-07T01:30:16.350Z,18.75
2019-06-07T01:32:48.596Z,11.38
2019-06-07T01:35:22.064Z,14.25
2019-06-07T01:37:54.958Z,17.27
2019-06-07T01:40:30.464Z,24.12
2019-06-07T01:43:01.552Z,18.27
2019-06-07T01:45:35.254Z,17.65
2019-06-07T01:48:07.832Z,19.10
2019-06-07T01:50:40.200Z,19.23
2019-06-07T01:53:12.971Z,14.65
2019-06-07T01:55:45.256Z,14.03
2019-06-07T01:58:17.522Z,14.00
2019-06-07T02:00:49.997Z,8.78
2019-06-07T02:03:28.092Z,11.63
2019-06-07T02:05:58.223Z,15.18
2019-06-07T02:08:34.183Z,18.20
2019-06-07T02:11:04.609Z,15.68
2019-06-07T02:13:36.665Z,10.90
2019-06-07T02:16:09.039Z,15.38
2019-06-07T02:19:00.672Z,15.70
2019-06-07T02:21:16.037Z,19.92
2019-06-07T02:23:48.763Z,17.62
2019-06-07T02:26:22.959Z,15.80
2019-06-07T02:28:55.301Z,15.20
2019-06-07T02:31:32.288Z,13.95
2019-06-07T02:34:01.892Z,22.25
2019-06-07T02:36:40.982Z,14.18
2019-06-07T02:39:08.582Z,16.75
2019-06-07T02:41:41.047Z,13.25
2019-06-07T02:44:13.424Z,17.00
2019-06-07T02:46:49.653Z,14.55
2019-06-07T02:49:19.915Z,16.80
2019-06-07T02:51:52.281Z,15.40
2019-06-07T02:54:27.418Z,15.03
2019-06-07T02:56:59.472Z,19.17
2019-06-07T02:59:54.868Z,16.25
2019-06-07T03:02:07.302Z,17.52
2019-06-07T03:04:44.557Z,13.00
2019-06-07T03:07:17.670Z,20.32
2019-06-07T03:09:51.172Z,23.05
2019-06-07T03:12:23.852Z,21.48
2019-06-07T03:14:56.684Z,14.63
2019-06-07T03:17:44.265Z,13.43
2019-06-07T03:20:21.609Z,16.23
2019-06-07T03:22:55.239Z,15.50
2019-06-07T03:25:30.854Z,15.63
2019-06-07T03:28:04.772Z,16.02
2019-06-07T03:30:57.223Z,18.98
2019-06-07T03:33:11.088Z,17.45
2019-06-07T03:35:43.356Z,16.48
2019-06-07T03:38:15.628Z,18.48
2019-06-07T03:40:48.001Z,20.43
2019-06-07T03:43:20.371Z,22.10
2019-06-07T03:45:52.744Z,22.58
2019-06-07T03:48:25.215Z,22.05
2019-06-07T03:51:04.629Z,21.00
2019-06-07T03:53:32.763Z,19.45
2019-06-07T03:56:06.075Z,16.93
2019-06-07T03:58:49.250Z,16.55
2019-06-07T04:01:12.198Z,16.82
2019-06-07T04:03:51.612Z,22.27
2019-06-07T04:06:20.755Z,15.88
2019-06-07T04:08:53.303Z,23.20
2019-06-07T04:11:25.681Z,18.32
2019-06-07T04:13:58.052Z,20.75
2019-06-07T04:16:34.924Z,16.48
2019-06-07T04:19:05.870Z,19.10
2019-06-07T04:21:42.591Z,19.17
2019-06-07T04:24:13.477Z,20.75
2019-06-07T04:26:46.822Z,12.53
2019-06-07T04:29:59.639Z,18.62
2019-06-07T04:31:53.055Z,14.80
2019-06-07T04:34:25.530Z,14.50
2019-06-07T04:36:59.606Z,8.85
2019-06-07T04:39:35.830Z,16.77
2019-06-07T04:42:09.714Z,19.50
2019-06-07T04:44:43.204Z,12.18
2019-06-07T04:47:16.594Z,13.53
2019-06-07T04:49:50.103Z,15.72
2019-06-07T04:52:22.263Z,15.05
2019-06-07T04:54:54.832Z,17.90
2019-06-07T04:57:29.999Z,15.48
2019-06-07T05:00:21.271Z,16.17
2019-06-07T05:02:39.798Z,13.45
2019-06-07T05:05:10.791Z,16.23
2019-06-07T05:07:45.945Z,15.83
2019-06-07T05:10:16.753Z,13.40
2019-06-07T05:12:49.132Z,11.88
2019-06-07T05:15:21.905Z,16.42
2019-06-07T05:17:53.968Z,19.55
2019-06-07T05:20:26.444Z,15.93
2019-06-07T05:22:58.711Z,11.80
2019-06-07T05:25:33.267Z,11.53
2019-06-07T05:28:05.309Z,18.62
2019-06-07T05:33:14.109Z,9.23
2019-06-07T05:35:46.309Z,9.55
2019-06-07T05:38:18.677Z,11.55
2019-06-07T05:40:51.054Z,12.35
2019-06-07T05:43:26.101Z,8.10
2019-06-07T05:45:58.664Z,15.55
2019-06-07T05:48:31.821Z,14.47
2019-06-07T05:51:04.427Z,7.30
2019-06-07T05:53:39.015Z,4.20
2019-06-07T05:56:12.053Z,11.78
2019-06-07T05:58:45.640Z,12.45
2019-06-07T06:03:52.548Z,9.20
2019-06-07T06:06:24.737Z,8.20
2019-06-07T06:09:12.869Z,11.55
2019-06-07T06:11:48.150Z,4.05
2019-06-07T06:14:07.905Z,9.00
2019-06-07T06:16:40.413Z,3.95
2019-06-07T06:19:13.893Z,10.08
2019-06-07T06:21:46.561Z,13.08
2019-06-07T06:24:18.984Z,4.97
2019-06-07T06:26:56.982Z,8.00
2019-06-07T06:29:25.281Z,6.90
2019-06-07T06:32:40.379Z,5.60
2019-06-07T06:34:32.362Z,7.53
2019-06-07T06:37:04.949Z,7.67
2019-06-07T06:39:37.416Z,9.75
2019-06-07T06:42:09.991Z,9.38
2019-06-07T06:44:44.456Z,19.80
2019-06-07T06:47:16.351Z,10.82
2019-06-07T06:49:50.122Z,8.45
2019-06-07T06:52:22.760Z,11.85
2019-06-07T06:55:00.967Z,7.28
2019-06-07T06:57:29.238Z,6.62
2019-06-07T07:00:01.516Z,12.30
2019-06-07T07:02:34.104Z,14.20
2019-06-07T07:05:08.203Z,5.15
2019-06-07T07:07:40.799Z,11.40
2019-06-07T07:10:16.424Z,12.47
2019-06-07T07:12:51.227Z,4.22
2019-06-07T07:15:23.016Z,18.55
2019-06-07T07:18:07.884Z,17.42
2019-06-07T07:20:29.599Z,7.80
2019-06-07T07:23:01.973Z,11.03
2019-06-07T07:25:34.245Z,6.95
2019-06-07T07:28:07.232Z,6.87
2019-06-07T07:30:47.291Z,9.30
2019-06-07T07:33:21.497Z,5.53
2019-06-07T07:36:18.493Z,6.70
2019-06-07T07:38:27.880Z,9.10
2019-06-07T07:41:15.303Z,5.10
2019-06-07T07:43:34.359Z,9.48
2019-06-07T07:46:28.404Z,17.87
2019-06-07T07:48:40.541Z,14.85
2019-06-07T07:51:12.911Z,8.00
2019-06-07T07:53:54.285Z,9.00
2019-06-07T07:56:19.906Z,7.70
2019-06-07T07:58:56.224Z,21.65
2019-06-07T08:01:27.723Z,11.70
2019-06-07T08:04:00.609Z,13.62
2019-06-07T08:06:32.980Z,7.60
2019-06-07T08:09:08.053Z,8.30
2019-06-07T08:11:40.186Z,12.90
2019-06-07T08:14:12.660Z,20.80
2019-06-07T08:16:44.822Z,12.88
2019-06-07T08:19:17.660Z,12.65
2019-06-07T08:21:50.654Z,4.15
2019-06-07T08:24:23.207Z,5.33
2019-06-07T08:27:17.835Z,5.40
2019-06-07T08:29:44.358Z,6.72
2019-06-07T08:32:03.048Z,6.53
2019-06-07T08:34:35.318Z,9.50
2019-06-07T08:37:07.791Z,8.90
2019-06-07T08:39:40.365Z,5.85
2019-06-07T08:42:21.191Z,9.48
2019-06-07T08:44:47.369Z,12.15
2019-06-07T08:47:21.232Z,4.17
2019-06-07T08:49:59.536Z,11.05
2019-06-07T08:52:27.757Z,12.30
2019-06-07T08:55:04.741Z,10.70
2019-06-07T08:57:34.575Z,21.15
2019-06-07T09:00:42.473Z,7.12
2019-06-07T09:02:43.439Z,8.80
2019-06-07T09:05:16.477Z,5.30
2019-06-07T09:08:08.119Z,9.03
2019-06-07T09:10:22.860Z,16.00
2019-06-07T09:13:02.982Z,6.95
2019-06-07T09:15:29.140Z,8.58
2019-06-07T09:20:44.493Z,8.23
2019-06-07T09:23:18.825Z,7.45
2019-06-07T09:26:02.614Z,9.45
2019-06-07T09:28:25.345Z,10.13
2019-06-07T09:30:59.771Z,10.25
2019-06-07T09:33:31.715Z,4.10
2019-06-07T09:36:09.218Z,10.03
2019-06-07T09:38:38.203Z,8.20
2019-06-07T09:41:10.675Z,7.03
2019-06-07T09:46:17.367Z,11.10
2019-06-07T09:51:23.639Z,7.42
2019-06-07T09:53:57.917Z,10.98
2019-06-07T09:56:30.227Z,11.20
2019-06-07T09:59:06.150Z,6.60
2019-06-07T10:01:36.921Z,13.88
2019-06-07T10:04:21.917Z,15.53
2019-06-07T10:06:43.618Z,10.88
2019-06-07T10:11:49.992Z,13.95
2019-06-07T10:14:22.685Z,13.13
2019-06-07T10:16:55.254Z,18.02
2019-06-07T10:19:27.415Z,18.17
2019-06-07T10:22:01.212Z,10.15
2019-06-07T10:24:33.799Z,15.90
2019-06-07T10:27:06.175Z,12.05
2019-06-07T10:29:39.771Z,13.50
2019-06-07T10:32:12.239Z,11.88
2019-06-07T10:34:44.722Z,15.10
2019-06-07T10:37:16.986Z,10.15
2019-06-07T10:39:49.490Z,22.58
2019-06-07T10:42:22.754Z,15.40
2019-06-07T10:44:55.026Z,16.70
2019-06-07T10:47:27.397Z,17.02
2019-06-07T10:49:59.773Z,15.83
2019-06-07T10:52:32.193Z,12.75
2019-06-07T10:55:06.862Z,13.60
2019-06-07T10:57:39.137Z,24.02
2019-06-07T11:00:14.221Z,24.10
2019-06-07T11:02:46.791Z,16.77
2019-06-07T11:05:19.229Z,19.40
2019-06-07T11:07:51.731Z,16.07
2019-06-07T11:10:24.169Z,19.42
2019-06-07T11:12:56.542Z,12.23
2019-06-07T11:15:29.103Z,9.28
2019-06-07T11:18:01.388Z,16.97
2019-06-07T11:20:33.758Z,9.73
2019-06-07T11:23:06.699Z,16.67
2019-06-07T11:25:39.322Z,18.30
2019-06-07T11:28:12.542Z,18.52
2019-06-07T11:30:44.782Z,18.00
2019-06-07T11:33:17.052Z,7.47
2019-06-07T11:35:49.115Z,8.88
2019-06-07T11:38:21.487Z,9.03
2019-06-07T11:40:53.860Z,18.42
2019-06-07T11:43:26.333Z,7.92
2019-06-07T11:45:58.702Z,7.45
2019-06-07T11:48:31.084Z,11.85
2019-06-07T11:51:03.566Z,10.72
2019-06-07T11:53:36.281Z,11.45
2019-06-07T11:56:10.325Z,8.55
2019-06-07T11:58:42.712Z,7.55
2019-06-07T12:01:17.145Z,10.50
2019-06-07T12:03:49.504Z,9.25
2019-06-07T12:06:21.773Z,6.28
2019-06-07T12:08:54.255Z,6.00
2019-06-07T12:11:26.729Z,9.08
2019-06-07T12:13:59.816Z,6.37
2019-06-07T12:16:32.185Z,42.55
2019-06-07T12:19:04.663Z,23.55
2019-06-07T12:21:36.934Z,12.33
2019-06-07T12:24:10.336Z,7.53
2019-06-07T12:26:42.598Z,12.75
2019-06-07T12:29:14.966Z,10.40
2019-06-07T12:31:47.137Z,7.55
2019-06-07T12:34:19.592Z,10.68
2019-06-07T12:36:52.083Z,11.60
2019-06-07T12:39:24.456Z,9.85
2019-06-07T12:41:57.035Z,5.37
2019-06-07T12:44:29.325Z,6.35
2019-06-07T12:47:01.570Z,9.35
2019-06-07T12:49:33.850Z,14.85
2019-06-07T12:52:07.545Z,11.57
2019-06-07T12:54:40.097Z,10.18
2019-06-07T12:57:13.696Z,21.52
2019-06-07T12:59:46.192Z,7.42
2019-06-07T13:02:20.036Z,15.48
2019-06-07T13:04:53.087Z,4.97
2019-06-07T13:07:25.366Z,12.53
2019-06-07T13:09:57.728Z,7.83
2019-06-07T13:12:30.206Z,11.95
2019-06-07T13:15:02.384Z,14.50
2019-06-07T13:17:37.307Z,12.00
2019-06-07T13:20:10.769Z,16.05
2019-06-07T13:22:42.969Z,15.78
2019-06-07T13:25:16.290Z,11.00
2019-06-07T13:27:48.433Z,16.17
2019-06-07T13:30:23.023Z,23.98
2019-06-07T13:32:55.526Z,15.53
2019-06-07T13:35:29.594Z,17.07
2019-06-07T13:38:01.608Z,24.37
2019-06-07T13:40:33.980Z,17.30
2019-06-07T13:43:06.349Z,12.00
2019-06-07T13:45:38.517Z,11.65
2019-06-07T13:48:10.873Z,16.95
2019-06-07T13:50:43.259Z,17.30
2019-06-07T13:53:15.824Z,11.20
2019-06-07T13:55:48.100Z,16.93
2019-06-07T13:58:21.264Z,9.78
2019-06-07T14:00:55.002Z,10.60
2019-06-07T14:03:32.717Z,13.48
2019-06-07T14:06:01.723Z,9.78
2019-06-07T14:08:34.369Z,13.43
2019-06-07T14:11:06.739Z,12.63
2019-06-07T14:13:39.214Z,12.35
2019-06-07T14:16:11.828Z,12.40
2019-06-07T14:18:44.367Z,5.70
2019-06-07T14:21:16.837Z,16.87
2019-06-07T14:23:49.586Z,12.78
2019-06-07T14:26:23.102Z,10.48
2019-06-07T14:28:55.387Z,13.32
2019-06-07T14:31:28.138Z,14.58
2019-06-07T14:34:00.364Z,9.10
2019-06-07T14:36:33.313Z,14.83
2019-06-07T14:39:07.649Z,14.28
2019-06-07T14:41:39.812Z,10.38
2019-06-07T14:44:12.287Z,24.70
2019-06-07T14:46:44.863Z,18.20
2019-06-07T14:49:17.331Z,12.85
2019-06-07T14:51:49.724Z,22.25
2019-06-07T14:54:22.718Z,15.60
2019-06-07T14:56:54.965Z,17.23
2019-06-07T14:59:28.338Z,20.30
2019-06-07T15:02:00.836Z,13.60
2019-06-07T15:04:32.998Z,22.10
2019-06-07T15:07:05.682Z,20.62
2019-06-07T15:09:39.311Z,16.90
2019-06-07T15:12:24.149Z,21.37
2019-06-07T15:14:45.457Z,11.68
2019-06-07T15:17:17.731Z,17.75
2019-06-07T15:19:49.994Z,21.70
2019-06-07T15:22:22.263Z,21.45
2019-06-07T15:24:54.841Z,26.33
2019-06-07T15:27:27.323Z,20.20
2019-06-07T15:30:00.402Z,20.35
2019-06-07T15:32:35.187Z,25.48
2019-06-07T15:35:08.749Z,23.83
2019-06-07T15:37:41.111Z,26.30
2019-06-07T15:40:14.202Z,25.23
2019-06-07T15:42:52.706Z,27.67
2019-06-07T15:45:20.491Z,25.90
2019-06-07T15:47:52.947Z,21.55
2019-06-07T15:50:28.641Z,25.20
2019-06-07T15:52:59.844Z,20.20
2019-06-07T15:55:37.172Z,18.17
2019-06-07T15:58:06.965Z,15.78
2019-06-07T16:00:41.054Z,23.87
2019-06-07T16:03:13.729Z,21.87
2019-06-07T16:05:46.002Z,15.50
2019-06-07T16:08:18.373Z,20.65
2019-06-07T16:10:50.640Z,24.02
2019-06-07T16:13:22.910Z,27.20
2019-06-07T16:15:55.281Z,39.53
2019-06-07T16:18:27.864Z,36.00
2019-06-07T16:21:00.230Z,38.38
2019-06-07T16:23:33.653Z,26.52
2019-06-07T16:26:06.207Z,31.20
2019-06-07T16:28:38.784Z,29.07
2019-06-07T16:31:11.263Z,21.02
2019-06-07T16:33:45.202Z,16.57
2019-06-07T16:36:17.747Z,22.93
2019-06-07T16:38:50.120Z,26.55
2019-06-07T16:41:22.484Z,27.82
2019-06-07T16:43:55.774Z,20.97
2019-06-07T16:46:28.254Z,37.93
2019-06-07T16:49:00.632Z,27.37
2019-06-07T16:51:33.116Z,29.80
2019-06-07T16:54:06.133Z,29.72
2019-06-07T16:56:43.365Z,29.07
2019-06-07T16:59:12.362Z,30.27
2019-06-07T17:01:45.334Z,33.65
2019-06-07T17:04:18.825Z,27.42
2019-06-07T17:06:51.016Z,42.62
2019-06-07T17:09:23.626Z,24.85
2019-06-07T17:11:56.274Z,29.35
2019-06-07T17:14:28.642Z,36.38
2019-06-07T17:17:01.118Z,30.00
2019-06-07T17:19:33.591Z,39.55
2019-06-07T17:22:05.861Z,35.25
2019-06-07T17:24:39.138Z,44.27
2019-06-07T17:27:11.631Z,40.05
2019-06-07T17:29:45.722Z,36.20
2019-06-07T17:32:18.022Z,43.20
2019-06-07T17:34:50.691Z,36.85
2019-06-07T17:37:23.265Z,42.30
2019-06-07T17:39:55.537Z,42.17
2019-06-07T17:42:28.120Z,43.42
2019-06-07T17:45:00.696Z,39.38
2019-06-07T17:47:32.960Z,40.25
2019-06-07T17:50:09.326Z,46.00
2019-06-07T17:52:41.829Z,46.88
2019-06-07T17:55:15.389Z,56.70
2019-06-07T17:57:48.517Z,54.75
2019-06-07T18:00:29.498Z,48.70
2019-06-07T18:02:57.836Z,56.70
2019-06-07T18:05:30.316Z,49.38
2019-06-07T18:08:03.714Z,41.53
2019-06-07T18:10:40.098Z,44.93
2019-06-07T18:13:12.348Z,56.45
2019-06-07T18:15:52.315Z,44.98
2019-06-07T18:18:21.404Z,52.45
2019-06-07T18:20:55.502Z,39.33
2019-06-07T18:23:27.986Z,43.78
2019-06-07T18:26:00.143Z,46.85
2019-06-07T18:28:32.314Z,40.25
2019-06-07T18:31:05.411Z,40.63
2019-06-07T18:33:37.673Z,36.88
2019-06-07T18:36:09.738Z,42.13
2019-06-07T18:38:42.312Z,46.13
2019-06-07T18:41:14.886Z,60.30
2019-06-07T18:43:47.466Z,47.17
2019-06-07T18:46:19.731Z,39.83
2019-06-07T18:48:52.619Z,43.13
2019-06-07T18:51:25.093Z,45.63
2019-06-07T18:53:57.922Z,52.70
2019-06-07T18:56:30.254Z,38.98
2019-06-07T18:59:02.825Z,35.35
2019-06-07T19:01:35.095Z,40.38
2019-06-07T19:04:08.246Z,32.60
2019-06-07T19:06:41.275Z,38.35
2019-06-07T19:09:13.862Z,41.00
2019-06-07T19:11:46.731Z,45.78
2019-06-07T19:14:19.410Z,36.20
2019-06-07T19:16:52.319Z,37.95
2019-06-07T19:19:25.700Z,31.73
2019-06-07T19:21:58.389Z,36.15
2019-06-07T19:24:31.168Z,39.80
2019-06-07T19:27:03.621Z,26.90
2019-06-07T19:29:36.234Z,22.55
2019-06-07T19:32:11.334Z,31.70
2019-06-07T19:34:44.014Z,35.85
2019-06-07T19:37:17.001Z,28.07
2019-06-07T19:39:49.680Z,27.67
2019-06-07T19:42:22.358Z,29.23
2019-06-07T19:45:00.838Z,29.95
2019-06-07T19:47:31.619Z,24.65
2019-06-07T19:50:05.926Z,29.98
2019-06-07T19:52:38.510Z,26.07
2019-06-07T19:55:11.524Z,26.35
2019-06-07T19:57:43.868Z,26.85
2019-06-07T20:00:16.545Z,21.50
2019-06-07T20:02:49.243Z,24.32
2019-06-07T20:05:21.896Z,25.27
2019-06-07T20:07:54.547Z,22.65
2019-06-07T20:10:26.948Z,22.98
2019-06-07T20:12:59.520Z,25.40
2019-06-07T20:15:33.030Z,19.50
2019-06-07T20:18:05.719Z,23.75
2019-06-07T20:20:37.984Z,21.07
2019-06-07T20:23:10.498Z,27.17
2019-06-07T20:25:43.133Z,21.77
2019-06-07T20:28:15.599Z,21.85
2019-06-07T20:30:48.087Z,32.17
2019-06-07T20:33:20.553Z,27.55
2019-06-07T20:35:52.819Z,23.20
2019-06-07T20:38:25.301Z,22.37
2019-06-07T20:40:57.667Z,17.02
2019-06-07T20:43:30.245Z,22.90
2019-06-07T20:46:05.055Z,19.52
2019-06-07T20:48:37.351Z,17.10
2019-06-07T20:51:09.919Z,20.12
2019-06-07T20:53:42.596Z,23.57
2019-06-07T20:56:14.970Z,24.98
2019-06-07T20:58:47.242Z,19.62
2019-06-07T21:01:19.717Z,16.62
2019-06-07T21:03:52.324Z,29.90
2019-06-07T21:06:24.971Z,33.58
2019-06-07T21:08:57.342Z,38.67
2019-06-07T21:11:29.623Z,35.78
2019-06-07T21:14:02.053Z,54.88
2019-06-07T21:16:34.256Z,64.50
2019-06-07T21:19:06.726Z,56.15
2019-06-07T21:21:39.011Z,75.15
2019-06-07T21:24:12.186Z,52.62
2019-06-07T21:26:44.559Z,49.60
2019-06-07T21:29:17.033Z,48.70
2019-06-07T21:31:49.510Z,56.13
2019-06-07T21:34:21.982Z,53.80
2019-06-07T21:36:54.561Z,52.45
2019-06-07T21:39:27.035Z,57.03
2019-06-07T21:41:59.205Z,53.05
2019-06-07T21:44:31.778Z,43.80
2019-06-07T21:47:04.287Z,38.00
2019-06-07T21:49:36.728Z,36.48
2019-06-07T21:52:09.100Z,37.23
2019-06-07T21:54:41.688Z,55.40
2019-06-07T21:57:13.849Z,36.68
2019-06-07T21:59:46.213Z,48.00
2019-06-07T22:02:18.791Z,37.38
2019-06-07T22:04:50.960Z,37.73
2019-06-07T22:07:23.330Z,30.60
2019-06-07T22:09:55.705Z,33.15
2019-06-07T22:12:28.175Z,33.75
2019-06-07T22:15:00.548Z,45.12
2019-06-07T22:17:32.931Z,24.98
2019-06-07T22:20:08.807Z,38.42
2019-06-07T22:22:41.966Z,32.20
2019-06-07T22:25:15.149Z,37.75
2019-06-07T22:27:47.422Z,33.78
2019-06-07T22:30:20.234Z,18.57
2019-06-07T22:32:52.379Z,12.45
2019-06-07T22:35:24.739Z,19.00
2019-06-07T22:37:57.115Z,26.73
2019-06-07T22:40:30.800Z,18.12
2019-06-07T22:43:03.084Z,29.10
2019-06-07T22:45:35.564Z,20.30
2019-06-07T22:48:08.898Z,23.87
2019-06-07T22:50:41.124Z,24.05
2019-06-07T22:53:13.937Z,27.17
2019-06-07T22:55:48.836Z,25.20
2019-06-07T22:58:21.208Z,22.13
2019-06-07T23:00:53.580Z,17.65
2019-06-07T23:03:26.158Z,17.00
2019-06-07T23:05:58.417Z,20.23
2019-06-07T23:08:31.107Z,16.48
2019-06-07T23:11:03.381Z,21.93
2019-06-07T23:13:35.642Z,14.38
2019-06-07T23:16:09.386Z,11.15
2019-06-07T23:18:41.619Z,14.80
2019-06-07T23:21:13.989Z,19.87
2019-06-07T23:23:46.466Z,12.95
2019-06-07T23:26:18.835Z,17.40
2019-06-07T23:28:51.315Z,24.50
2019-06-07T23:31:23.785Z,20.85
2019-06-07T23:33:56.362Z,20.25
2019-06-07T23:36:28.729Z,22.22
2019-06-07T23:39:01.105Z,17.80
2019-06-07T23:41:34.401Z,20.57
2019-06-07T23:44:06.973Z,13.90
2019-06-07T23:46:40.575Z,20.75
2019-06-07T23:49:14.035Z,12.70
2019-06-07T23:51:46.293Z,16.65
2019-06-07T23:54:19.822Z,17.37
2019-06-07T23:56:52.431Z,23.80
2019-06-07T23:59:24.685Z,16.57
